Etusivu
METAR-TAF:

METAR-TAF

Lentoasemat :

Pangborn Memorial Airport

Wenatchee, Washington, Yhdysvallat

Leveyspiiri: 47-23-56N, Pituuspiiri: 120-12-25W, korkeus merenpinnasta: 381 m

Tämänhetkinen sää

Tämä raportti tehtiin 59 minuuttia sitten, kello 12.55 UTC
Tuuli 4 kn luoteesta
Lämpötila 10°C
Kosteus 87%
Ilmanpaine 1024 hPa
Näkyvyys: 16.1 km
selkeää

METAR: KEAT 291255Z AUTO 31004KT 10SM CLR 10/08 A3023 RMK AO2 SLP236 T01000083

Aika: 06:54 (13:54 UTC)

Sääennuste

Tämä raportti tehtiin 2 tuntia ja 34 minuuttia sitten, kello 11.20 UTC
Ennuste voimassa 29. päivästä klo 12 UTC - 30. päivään klo 12 UTC
Tuuli 4 kn lännestä/luoteesta
Näkyvyys: 10 km
selkeää
From 29. päivästä klo 2000 UTC
Tuuli 4 kn idästä/kaakosta
Näkyvyys: 10 km
selkeää
From 30. päivästä klo 0300 UTC
Tuuli 6 kn luoteesta
Näkyvyys: 10 km
selkeää

TAF: KEAT 291120Z 2912/3012 29004KT P6SM SKC FM292000 12004KT P6SM SKC FM300300 31006KT P6SM SKC

Säähavainnot ja -ennusteet yli 4000 lentoasemalta (METAR- ja TAF-raportit).

Käytössä olevat sääasemat on merkitty karttaan keltaisilla ja punaisilla pisteillä.

Aseta hiiri pisteen päälle nähdäksesi sääaseman nimen.

Klikkaa sitten nähdäksesi säähavainnot ja -ennusteet.

Kartan vaihtaminen: klikkaa mustalla rastilla varustettuja vihreitä pisteitä, niin voit zoomata sisään; viivalla varustettua vihreää pistettä, niin voit zoomata ulos tai vihreitä nuolia, niin pääset viereisille kartoille.


METAR-TAF: